Terminal Aerodrome Forecast
Issued by NWS

Home | Current Version | Previous Version | Text Only | Print | Product List | Glossary On
Versions: 1 2 3 4 5 6 7 8 9 10 11 12 13 14 15
000
FTUS46 KEKA 250534
TAFUKI
TAF
KUKI 250534Z 2506/2606 33005KT P6SM OVC200
     FM251400 15003KT 5SM BR SCT004 BKN200
     FM251800 16008KT P6SM BKN150
     FM260200 15008KT P6SM VCSH OVC100=

USA.gov is the U.S. government's official web portal to all federal, state and local government web resources and services.